Pagrindinis puslapis
METAR-TAF:

METAR-TAF

Oro uostai :

Stord, Norvegija

platuma: 59-48N, ilguma: 005-21E, Aukštis: 49 m

Dabartinis oras

Ataskaita buvo paskelbta 4 valandos ir 4 minutes, ne 08:50 UTC
Vėjas 14 kt iš Šiaurės
Temperatūra 2°C
Drėgmė 87%
Slėgis 995 hPa
Matomumas 10 km arba daugiau
Išsisklaidę debesys ne aukštis 2200 ft, Liūtiniai kamuoliniai debesys.
Išsisklaidę debesys ne aukštis 3000 ft
Liūtis kaimynystėje

METAR: ENSO 300850Z 36014KT 9999 VCSH SCT022CB SCT030 02/M00 Q0995

Laikas: 13:54 (12:54 UTC)

Prognozė

Ataskaita buvo paskelbta 4 valandos ir 54 minutes, ne 08:00 UTC
Prognozė galioja nuo 30 metu 09 UTC su 30 metu 18 UTC
Vėjas 12 kt iš Šiaurės
Matomumas 10 km arba daugiau
Mažai debesys ne aukštis 1500 ft
Išsisklaidę debesys ne aukštis 3000 ft
Tikimybė 30% :
Laikinai
nuo 30 metu 09 UTC su 30 metu 11 UTC
Vėjas 15 kt iš Šiaurės su gūsio iki 25 kt
Išsisklaidę debesys ne aukštis 2000 ft, Liūtiniai kamuoliniai debesys.

TAF: ENSO 300800Z 3009/3018 35012KT 9999 FEW015 SCT030 PROB30 TEMPO 3009/3011 35015G25KT SCT020CB

Orai ataskaitas ir orų prognozės (METAR, TAF).

turimą stotys yra geltonos ir raudonos taškus žemėlapyje.

Perkelti pele per norėdami pamatyti stoties vardą.

Tada spustelėkite, norėdami matyti oro stebėjimo ir prognozės.

Norėdami pakeisti žemėlapį: spustelėkite ant žalios mygtukų su juodo kryžiaus žemyn,; žalią mygtuką su brūkšneliu, jei norite nutolinti; arba žalių rodyklių gretimoms žemėlapius.


METAR-TAF: